Time;durP1;ratioP1;P1;durP2;ratioP2;P2;SDS_P1;SDS_P2;PMS_P1;PMS_P2;Temp;Humidity;BMP_temperature;BMP_pressure;BME280_temperature;BME280_humidity;BME280_pressure;Samples;Min_cycle;Max_cycle;Signal;HPM_P1;HPM_P2
2021/12/26 14:54:46;;;;;;;9.77;4.22;;;1.70;99.90;;;;;;5092591;27;20358;-69
2021/12/26 14:57:35;;;;;;;8.85;3.40;;;1.80;99.90;;;;;;5085272;28;20032;-69
2021/12/26 15:00:22;;;;;;;8.07;3.40;;;1.90;99.90;;;;;;5085026;28;20028;-69
2021/12/26 15:02:52;;;;;;;7.43;3.50;;;1.90;99.90;;;;;;5085877;28;20071;-70
2021/12/26 15:05:22;;;;;;;6.93;2.97;;;1.80;99.90;;;;;;5085413;28;20043;-69
2021/12/26 15:07:50;;;;;;;7.82;3.70;;;1.90;99.90;;;;;;5083176;28;20443;-69
2021/12/26 15:10:18;;;;;;;7.15;3.55;;;1.90;99.90;;;;;;5081623;28;20102;-69
2021/12/26 15:12:47;;;;;;;8.70;2.97;;;2.00;99.90;;;;;;5077587;28;20044;-69
2021/12/26 15:15:12;;;;;;;6.25;3.17;;;2.00;99.90;;;;;;5080208;28;20035;-69
2021/12/26 15:17:38;;;;;;;7.75;3.10;;;2.00;99.90;;;;;;5081399;28;20036;-69
2021/12/26 15:20:29;;;;;;;8.13;3.83;;;2.00;99.90;;;;;;5083405;28;20037;-69
2021/12/26 15:23:16;;;;;;;7.05;3.60;;;2.00;99.90;;;;;;5079907;28;20039;-70
2021/12/26 15:25:44;;;;;;;7.05;3.45;;;2.00;99.90;;;;;;5079516;28;20051;-69
2021/12/26 15:28:11;;;;;;;6.53;3.13;;;2.00;99.90;;;;;;5078593;28;20036;-69
2021/12/26 15:30:38;;;;;;;8.38;3.45;;;2.00;99.90;;;;;;5080615;28;20052;-69
2021/12/26 15:33:04;;;;;;;10.93;4.70;;;2.00;99.90;;;;;;5079769;28;20123;-69
2021/12/26 15:35:31;;;;;;;9.23;3.83;;;2.00;99.90;;;;;;5077694;28;20187;-69
2021/12/26 15:37:57;;;;;;;7.13;3.20;;;2.10;99.90;;;;;;5078854;28;20024;-69
2021/12/26 15:40:23;;;;;;;8.73;3.40;;;2.10;99.90;;;;;;5078349;28;20020;-69
2021/12/26 15:42:48;;;;;;;8.48;3.72;;;2.10;99.90;;;;;;5078290;28;21044;-69
2021/12/26 15:45:14;;;;;;;7.03;3.40;;;2.00;99.90;;;;;;5082347;28;20476;-68
2021/12/26 15:47:42;;;;;;;7.38;3.25;;;2.00;99.90;;;;;;5080942;28;20500;-69
2021/12/26 15:50:09;;;;;;;8.13;3.10;;;2.00;99.90;;;;;;5077448;28;20101;-69
2021/12/26 15:52:34;;;;;;;7.40;3.03;;;2.00;99.90;;;;;;5078452;28;20047;-69
2021/12/26 15:55:00;;;;;;;8.10;3.67;;;2.00;99.90;;;;;;5082603;28;20028;-70
2021/12/26 15:57:25;;;;;;;7.55;3.10;;;2.00;99.90;;;;;;5079717;28;20036;-69
2021/12/26 15:59:51;;;;;;;13.90;3.92;;;2.00;99.90;;;;;;5076270;28;20036;-69
2021/12/26 16:02:16;;;;;;;6.35;2.95;;;2.00;99.90;;;;;;5077746;28;20035;-69
2021/12/26 16:04:42;;;;;;;24.95;10.10;;;2.10;99.90;;;;;;5076035;28;20075;-69
2021/12/26 16:07:07;;;;;;;11.77;4.97;;;2.00;99.90;;;;;;5065891;28;20492;-69
2021/12/26 16:09:33;;;;;;;14.98;6.90;;;2.00;99.90;;;;;;5067890;28;20025;-69
2021/12/26 16:12:00;;;;;;;13.93;6.22;;;2.00;99.90;;;;;;5067603;28;20031;-69
2021/12/26 16:14:26;;;;;;;90.85;30.80;;;2.00;99.90;;;;;;5063347;28;20041;-69
2021/12/26 16:16:52;;;;;;;16.10;6.28;;;1.90;99.90;;;;;;5066932;28;20563;-70
2021/12/26 16:19:17;;;;;;;13.48;5.18;;;1.90;99.90;;;;;;5068588;28;20048;-69
2021/12/26 16:21:43;;;;;;;37.80;10.77;;;1.80;99.90;;;;;;5065053;28;20032;-69
2021/12/26 16:24:09;;;;;;;22.10;7.55;;;1.80;99.90;;;;;;5065869;28;20029;-69
2021/12/26 16:26:35;;;;;;;19.15;6.75;;;1.90;99.90;;;;;;5064581;28;20087;-68
2021/12/26 16:29:02;;;;;;;63.63;17.88;;;1.90;99.90;;;;;;5065759;28;20063;-69
2021/12/26 16:31:27;;;;;;;11.05;4.88;;;1.80;99.90;;;;;;5063229;28;20033;-69
2021/12/26 16:33:53;;;;;;;10.98;4.50;;;1.80;99.90;;;;;;5064709;28;20051;-69
2021/12/26 16:36:19;;;;;;;13.93;5.20;;;1.80;99.90;;;;;;5065174;28;20059;-69
2021/12/26 16:38:46;;;;;;;19.67;4.88;;;1.80;99.90;;;;;;5063284;28;20060;-69
2021/12/26 16:41:12;;;;;;;9.93;4.32;;;1.80;99.90;;;;;;5063434;28;20530;-69
2021/12/26 16:43:40;;;;;;;21.35;6.13;;;1.80;99.90;;;;;;5069371;28;20043;-68
2021/12/26 16:46:08;;;;;;;17.35;6.80;;;1.90;99.90;;;;;;5064599;28;20106;-69
2021/12/26 16:48:34;;;;;;;20.80;7.10;;;1.90;99.90;;;;;;5064927;28;20052;-69
2021/12/26 16:50:59;;;;;;;112.57;26.52;;;1.90;99.90;;;;;;5066932;28;20029;-69
2021/12/26 16:53:25;;;;;;;53.35;12.40;;;1.90;99.90;;;;;;5064214;28;20033;-69
2021/12/26 16:55:50;;;;;;;43.92;12.45;;;1.90;99.90;;;;;;5065528;28;20052;-69
2021/12/26 16:58:16;;;;;;;58.13;16.65;;;1.90;99.90;;;;;;5065414;28;20067;-69
2021/12/26 17:00:43;;;;;;;72.90;21.30;;;1.80;99.90;;;;;;5065899;28;20045;-69
2021/12/26 17:03:09;;;;;;;70.10;16.73;;;1.80;99.90;;;;;;5062802;28;20036;-69
2021/12/26 17:05:36;;;;;;;77.43;18.88;;;1.90;99.90;;;;;;5067987;28;20733;-69
2021/12/26 17:08:02;;;;;;;207.73;61.60;;;1.90;99.90;;;;;;5066727;28;20029;-70
2021/12/26 17:10:28;;;;;;;64.55;20.00;;;1.90;99.90;;;;;;5062213;28;20059;-69
2021/12/26 17:12:53;;;;;;;28.48;9.15;;;1.90;99.90;;;;;;5063849;28;20033;-69
2021/12/26 17:15:19;;;;;;;18.38;6.93;;;2.00;99.90;;;;;;5062822;28;20057;-68
2021/12/26 17:17:45;;;;;;;23.25;8.48;;;2.00;99.90;;;;;;5063470;28;20037;-69
2021/12/26 17:20:11;;;;;;;14.20;5.60;;;2.00;99.90;;;;;;5064358;28;20067;-69
2021/12/26 17:22:36;;;;;;;41.35;10.23;;;1.90;99.90;;;;;;5064529;28;20640;-69
2021/12/26 17:25:04;;;;;;;17.63;5.72;;;1.90;99.90;;;;;;5066618;28;20032;-69
2021/12/26 17:27:30;;;;;;;9.63;4.65;;;1.90;99.90;;;;;;5062105;28;20057;-67
2021/12/26 17:29:58;;;;;;;12.93;4.80;;;1.90;99.90;;;;;;5062915;28;20108;-71
2021/12/26 17:32:25;;;;;;;11.38;4.55;;;1.90;99.90;;;;;;5067187;28;20037;-69
2021/12/26 17:34:52;;;;;;;12.10;4.20;;;1.90;99.90;;;;;;5064637;28;20040;-69
2021/12/26 17:37:18;;;;;;;8.02;4.05;;;1.90;99.90;;;;;;5061796;28;20020;-69
2021/12/26 17:39:44;;;;;;;6.55;3.58;;;2.00;99.90;;;;;;5062547;28;20089;-68
2021/12/26 17:42:11;;;;;;;8.07;3.40;;;2.00;99.90;;;;;;5064544;28;20036;-69
2021/12/26 17:44:38;;;;;;;10.63;4.47;;;2.00;99.90;;;;;;5068380;28;20040;-69
2021/12/26 17:47:05;;;;;;;7.28;3.83;;;2.00;99.90;;;;;;5067913;28;20096;-69
2021/12/26 17:49:30;;;;;;;9.57;4.30;;;2.10;99.90;;;;;;5069034;28;20119;-69
2021/12/26 17:51:56;;;;;;;10.35;4.72;;;2.10;99.90;;;;;;5068755;28;20166;-68
2021/12/26 17:54:22;;;;;;;10.23;4.72;;;2.10;99.90;;;;;;5069743;28;20064;-69
2021/12/26 17:56:48;;;;;;;34.30;17.10;;;2.10;99.90;;;;;;5069432;28;20033;-69
2021/12/26 17:59:15;;;;;;;25.92;10.15;;;2.10;99.90;;;;;;5068829;28;20579;-69
2021/12/26 18:01:42;;;;;;;46.90;24.52;;;2.10;99.90;;;;;;5067773;28;20530;-69
2021/12/26 18:04:08;;;;;;;70.18;33.83;;;2.10;99.90;;;;;;5067920;28;20044;-69
2021/12/26 18:06:34;;;;;;;20.35;8.35;;;2.00;99.90;;;;;;5068241;28;20039;-69
2021/12/26 18:09:00;;;;;;;13.25;5.07;;;2.00;99.90;;;;;;5063758;28;20052;-70
2021/12/26 18:11:26;;;;;;;10.32;4.95;;;2.00;99.90;;;;;;5063945;28;20082;-69
2021/12/26 18:13:52;;;;;;;14.98;7.03;;;2.10;99.90;;;;;;5064670;28;20086;-69
2021/12/26 18:16:18;;;;;;;11.07;5.68;;;2.10;99.90;;;;;;5064502;28;20032;-69
2021/12/26 18:18:43;;;;;;;9.77;4.65;;;2.10;99.90;;;;;;5065886;28;20028;-69
2021/12/26 18:21:09;;;;;;;26.90;16.63;;;2.10;99.90;;;;;;5059295;28;20039;-70
2021/12/26 18:23:34;;;;;;;10.20;5.00;;;1.90;99.90;;;;;;5065773;28;20032;-69
2021/12/26 18:26:00;;;;;;;9.20;4.97;;;2.00;99.90;;;;;;5062799;28;20036;-70
2021/12/26 18:28:26;;;;;;;10.55;4.72;;;2.00;99.90;;;;;;5062274;28;20056;-69
2021/12/26 18:30:52;;;;;;;53.20;18.48;;;2.00;99.90;;;;;;5062542;28;20048;-69
2021/12/26 18:33:17;;;;;;;16.42;7.57;;;2.10;99.90;;;;;;5065376;28;20043;-69
2021/12/26 18:35:43;;;;;;;18.50;6.80;;;2.20;99.90;;;;;;5062207;28;20474;-69
2021/12/26 18:38:09;;;;;;;15.25;5.50;;;2.20;99.90;;;;;;5065160;28;20166;-69
2021/12/26 18:40:36;;;;;;;10.30;4.28;;;2.20;99.90;;;;;;5064609;28;20048;-69
2021/12/26 18:43:04;;;;;;;13.40;5.53;;;2.20;99.90;;;;;;5065462;28;20035;-71
2021/12/26 18:45:39;;;;;;;17.83;6.03;;;2.30;99.90;;;;;;5062819;28;20039;-69
2021/12/26 18:48:05;;;;;;;13.52;5.38;;;2.30;99.90;;;;;;5065645;28;20024;-69
2021/12/26 18:50:32;;;;;;;13.60;4.60;;;2.30;99.90;;;;;;5062147;28;20059;-69
2021/12/26 18:52:58;;;;;;;11.85;4.78;;;2.30;99.90;;;;;;5062092;28;20040;-69
2021/12/26 18:55:24;;;;;;;16.48;4.40;;;2.30;99.90;;;;;;5061329;28;20044;-69
2021/12/26 18:57:50;;;;;;;9.93;4.25;;;2.40;99.90;;;;;;5066642;28;20032;-69
2021/12/26 19:00:20;;;;;;;12.32;4.80;;;2.40;99.90;;;;;;5062595;28;20080;-69
2021/12/26 19:02:49;;;;;;;8.15;3.63;;;2.40;99.90;;;;;;5062545;28;20041;-69
2021/12/26 19:05:16;;;;;;;12.90;4.97;;;2.40;99.90;;;;;;5062462;28;20032;-69
2021/12/26 19:07:42;;;;;;;11.52;4.90;;;2.40;99.90;;;;;;5063796;28;20404;-69
2021/12/26 19:10:08;;;;;;;19.70;5.53;;;2.30;99.90;;;;;;5061645;28;20044;-69
2021/12/26 19:12:33;;;;;;;11.13;5.05;;;2.30;99.90;;;;;;5062346;28;20044;-69
2021/12/26 19:14:59;;;;;;;13.70;5.00;;;2.40;99.90;;;;;;5063635;28;20039;-69
2021/12/26 19:17:25;;;;;;;10.65;4.78;;;2.50;99.90;;;;;;5063588;28;20036;-69
2021/12/26 19:19:50;;;;;;;14.18;5.78;;;2.50;99.90;;;;;;5060183;28;20645;-69
2021/12/26 19:22:16;;;;;;;16.95;5.82;;;2.40;99.90;;;;;;5062828;28;20111;-69
2021/12/26 19:24:42;;;;;;;18.40;6.80;;;2.50;99.90;;;;;;5062253;28;20033;-69
2021/12/26 19:27:07;;;;;;;12.52;5.15;;;2.50;99.90;;;;;;5062388;28;20028;-70
2021/12/26 19:29:37;;;;;;;9.75;3.95;;;2.50;99.90;;;;;;5064249;28;20457;-69
2021/12/26 19:32:06;;;;;;;9.88;4.47;;;2.50;99.90;;;;;;5064046;28;20131;-70
2021/12/26 19:34:35;;;;;;;10.23;5.43;;;2.50;99.90;;;;;;5063303;28;20059;-69
2021/12/26 19:37:05;;;;;;;9.52;4.53;;;2.50;99.90;;;;;;5064413;28;20519;-69
2021/12/26 19:39:30;;;;;;;11.77;5.10;;;2.50;99.90;;;;;;5062913;28;20462;-69
2021/12/26 19:41:56;;;;;;;10.23;4.75;;;2.50;99.90;;;;;;5067281;28;20033;-69
2021/12/26 19:44:22;;;;;;;11.57;4.70;;;2.50;99.90;;;;;;5065913;28;20170;-69
2021/12/26 19:46:48;;;;;;;9.52;4.28;;;2.50;99.90;;;;;;5069817;28;20033;-69
2021/12/26 19:49:14;;;;;;;11.98;5.13;;;2.50;99.90;;;;;;5065845;28;20115;-69
2021/12/26 19:51:41;;;;;;;10.15;4.80;;;2.50;99.90;;;;;;5066956;28;20102;-69
2021/12/26 19:54:07;;;;;;;9.27;4.22;;;2.60;99.90;;;;;;5063901;28;20484;-70
2021/12/26 19:56:33;;;;;;;11.55;4.10;;;2.50;99.90;;;;;;5069426;28;20178;-70
2021/12/26 19:58:59;;;;;;;9.15;4.22;;;2.50;99.90;;;;;;5064456;28;20119;-71
2021/12/26 20:01:25;;;;;;;9.45;5.03;;;2.50;99.90;;;;;;5065409;28;20033;-69
2021/12/26 20:03:51;;;;;;;9.48;4.32;;;2.50;99.90;;;;;;5068944;28;20028;-70
2021/12/26 20:06:17;;;;;;;14.45;5.25;;;2.60;99.90;;;;;;5065175;28;20051;-69
2021/12/26 20:08:43;;;;;;;12.73;4.88;;;2.60;99.90;;;;;;5066440;28;20384;-69
2021/12/26 20:11:09;;;;;;;10.57;4.93;;;2.50;99.90;;;;;;5065154;28;20037;-69
2021/12/26 20:13:36;;;;;;;14.27;5.78;;;2.60;99.90;;;;;;5070654;28;20056;-69
2021/12/26 20:16:06;;;;;;;8.23;3.95;;;2.60;99.90;;;;;;5070925;28;20102;-70
2021/12/26 20:18:31;;;;;;;10.57;4.97;;;2.60;99.90;;;;;;5073984;28;20459;-69
2021/12/26 20:20:57;;;;;;;10.02;4.28;;;2.60;99.90;;;;;;5072415;28;20818;-70
2021/12/26 20:23:23;;;;;;;8.80;4.45;;;2.70;99.90;;;;;;5067764;28;20064;-70
2021/12/26 20:25:49;;;;;;;13.25;4.97;;;2.60;99.90;;;;;;5070115;28;20090;-69
2021/12/26 20:28:15;;;;;;;13.70;4.35;;;2.60;99.90;;;;;;5072077;28;20029;-70
2021/12/26 20:30:45;;;;;;;11.32;5.03;;;2.70;99.90;;;;;;5072111;28;20029;-69
2021/12/26 20:33:11;;;;;;;10.93;4.60;;;2.70;99.90;;;;;;5067994;28;20040;-70
2021/12/26 20:35:38;;;;;;;10.73;5.00;;;2.70;99.90;;;;;;5069350;28;20369;-69
2021/12/26 20:38:04;;;;;;;10.25;5.32;;;2.60;99.90;;;;;;5059083;28;20583;-69
2021/12/26 20:40:31;;;;;;;11.20;4.60;;;2.60;99.90;;;;;;5060080;28;20037;-69
2021/12/26 20:42:57;;;;;;;12.18;5.03;;;2.60;99.90;;;;;;5067249;28;20042;-70
2021/12/26 20:45:23;;;;;;;12.07;5.63;;;2.60;99.90;;;;;;5065474;28;20036;-70
2021/12/26 20:47:48;;;;;;;15.48;5.65;;;2.60;99.90;;;;;;5062118;28;20028;-69
2021/12/26 20:50:14;;;;;;;14.15;5.47;;;2.60;99.90;;;;;;5065413;28;20028;-70
2021/12/26 20:52:40;;;;;;;12.75;5.72;;;2.60;99.90;;;;;;5065119;28;20033;-70
2021/12/26 20:55:07;;;;;;;14.65;5.55;;;2.60;99.90;;;;;;5070076;28;20052;-70
2021/12/26 20:57:33;;;;;;;11.50;4.95;;;2.60;99.90;;;;;;5075064;28;20079;-69
2021/12/26 20:59:59;;;;;;;11.38;5.13;;;2.50;99.90;;;;;;5070958;28;20476;-71
2021/12/26 21:02:24;;;;;;;12.88;6.25;;;2.50;99.90;;;;;;5071461;28;20078;-69
2021/12/26 21:04:50;;;;;;;13.07;5.50;;;2.50;99.90;;;;;;5070188;28;20071;-69
2021/12/26 21:07:17;;;;;;;15.90;6.32;;;2.60;99.90;;;;;;5070567;28;20032;-69
2021/12/26 21:09:43;;;;;;;9.82;5.18;;;2.60;99.90;;;;;;5068768;28;20467;-69
2021/12/26 21:12:09;;;;;;;12.35;5.57;;;2.60;99.90;;;;;;5068473;28;20053;-70
2021/12/26 21:14:35;;;;;;;19.10;6.25;;;2.60;99.90;;;;;;5070581;28;20504;-69
2021/12/26 21:17:00;;;;;;;10.07;4.82;;;2.60;99.90;;;;;;5069874;28;20048;-70
2021/12/26 21:19:26;;;;;;;11.02;4.78;;;2.60;99.90;;;;;;5070045;28;20112;-70
2021/12/26 21:21:52;;;;;;;11.75;5.60;;;2.60;99.90;;;;;;5069735;28;20045;-70
2021/12/26 21:24:18;;;;;;;13.55;6.13;;;2.50;99.90;;;;;;5070064;28;20028;-70
2021/12/26 21:26:44;;;;;;;11.85;6.40;;;2.50;99.90;;;;;;5067467;28;20524;-70
2021/12/26 21:29:10;;;;;;;14.65;6.18;;;2.40;99.90;;;;;;5059633;28;20020;-70
2021/12/26 21:31:35;;;;;;;15.40;5.80;;;2.40;99.90;;;;;;5074698;28;20442;-70
2021/12/26 21:34:01;;;;;;;18.35;6.07;;;2.50;99.90;;;;;;5070669;28;20037;-71
2021/12/26 21:36:27;;;;;;;11.93;5.45;;;2.40;99.90;;;;;;5073321;28;20029;-70
2021/12/26 21:38:53;;;;;;;15.23;6.82;;;2.40;99.90;;;;;;5072098;28;20063;-70
2021/12/26 21:41:18;;;;;;;16.83;8.25;;;2.40;99.90;;;;;;5072830;28;20043;-71
2021/12/26 21:43:44;;;;;;;12.82;6.20;;;2.40;99.90;;;;;;5065720;28;20403;-70
2021/12/26 21:46:09;;;;;;;18.13;7.07;;;2.30;99.90;;;;;;5070678;28;20107;-70
2021/12/26 21:48:37;;;;;;;15.88;6.57;;;2.40;99.90;;;;;;5069413;28;20044;-70
2021/12/26 21:51:03;;;;;;;18.75;7.82;;;2.30;99.90;;;;;;5067618;28;20024;-70
2021/12/26 21:53:30;;;;;;;13.15;5.68;;;2.30;99.90;;;;;;5071237;28;20628;-70
2021/12/26 21:55:57;;;;;;;14.48;6.75;;;2.40;99.90;;;;;;5069369;28;20032;-70
2021/12/26 21:58:23;;;;;;;12.60;6.28;;;2.40;99.90;;;;;;5068410;28;20552;-70
2021/12/26 22:00:49;;;;;;;14.98;6.75;;;2.30;99.90;;;;;;5070412;28;20112;-70
2021/12/26 22:03:14;;;;;;;15.07;7.00;;;2.30;99.90;;;;;;5068292;28;20745;-70
2021/12/26 22:05:40;;;;;;;17.48;6.55;;;2.30;99.90;;;;;;5068299;28;20476;-70
2021/12/26 22:08:06;;;;;;;17.67;6.47;;;2.40;99.90;;;;;;5070029;28;20049;-71
2021/12/26 22:10:32;;;;;;;17.60;7.32;;;2.30;99.90;;;;;;5069962;28;20037;-70
2021/12/26 22:12:58;;;;;;;12.82;6.65;;;2.40;99.90;;;;;;5070070;28;20041;-70
2021/12/26 22:15:24;;;;;;;17.45;6.15;;;2.40;99.90;;;;;;5068643;28;20543;-70
2021/12/26 22:17:50;;;;;;;24.20;7.90;;;2.40;99.90;;;;;;5070079;28;20094;-70
2021/12/26 22:20:16;;;;;;;25.63;7.50;;;2.40;99.90;;;;;;5068225;28;20074;-70
2021/12/26 22:22:43;;;;;;;20.23;7.35;;;2.40;99.90;;;;;;5070146;28;20040;-70
2021/12/26 22:25:11;;;;;;;29.25;9.07;;;2.50;99.90;;;;;;5068729;28;20021;-70
2021/12/26 22:27:40;;;;;;;15.05;7.03;;;2.50;99.90;;;;;;5070271;28;20230;-70
2021/12/26 22:30:08;;;;;;;20.50;6.55;;;2.50;99.90;;;;;;5068163;28;20480;-70
2021/12/26 22:32:33;;;;;;;16.33;7.07;;;2.50;99.90;;;;;;5066081;28;20047;-70
2021/12/26 22:35:00;;;;;;;16.23;7.15;;;2.40;99.90;;;;;;5069684;28;20033;-72
2021/12/26 22:37:26;;;;;;;25.33;8.68;;;2.50;99.90;;;;;;5070303;28;20119;-70
2021/12/26 22:39:52;;;;;;;20.20;7.28;;;2.40;99.90;;;;;;5069374;28;20100;-70
2021/12/26 22:42:18;;;;;;;17.88;7.57;;;2.50;99.90;;;;;;5069188;28;20479;-69
2021/12/26 22:44:45;;;;;;;18.17;7.43;;;2.50;99.90;;;;;;5069952;28;20037;-70
2021/12/26 22:47:11;;;;;;;24.35;8.07;;;2.50;99.90;;;;;;5069133;28;20082;-70
2021/12/26 22:49:37;;;;;;;21.88;8.60;;;2.50;99.90;;;;;;5069875;28;20115;-70
2021/12/26 22:52:09;;;;;;;20.00;8.38;;;2.50;99.90;;;;;;5069367;28;20028;-70
2021/12/26 22:54:35;;;;;;;28.15;8.82;;;2.50;99.90;;;;;;5065013;28;20105;-69
2021/12/26 22:57:01;;;;;;;19.75;7.90;;;2.50;99.90;;;;;;5065466;28;20028;-70
2021/12/26 22:59:27;;;;;;;24.58;9.57;;;2.50;99.90;;;;;;5069728;28;20029;-70
2021/12/26 23:01:52;;;;;;;26.95;8.45;;;2.60;99.90;;;;;;5067970;28;20040;-69
2021/12/26 23:04:18;;;;;;;18.20;7.15;;;2.60;99.90;;;;;;5069551;28;20116;-70
2021/12/26 23:06:44;;;;;;;16.48;7.03;;;2.60;99.90;;;;;;5069798;28;20111;-69
2021/12/26 23:09:10;;;;;;;25.42;8.63;;;2.60;99.90;;;;;;5069600;28;20047;-70
2021/12/26 23:11:35;;;;;;;24.65;7.57;;;2.60;99.90;;;;;;5070091;28;20047;-70
2021/12/26 23:14:01;;;;;;;19.85;8.38;;;2.60;99.90;;;;;;5068123;28;20037;-70
2021/12/26 23:16:27;;;;;;;26.15;9.88;;;2.60;99.90;;;;;;5073128;28;20078;-70
2021/12/26 23:18:56;;;;;;;22.27;7.88;;;2.60;99.90;;;;;;5073485;28;20082;-70
2021/12/26 23:21:23;;;;;;;21.15;8.50;;;2.60;99.90;;;;;;5072833;28;20559;-69
2021/12/26 23:23:49;;;;;;;26.35;8.43;;;2.60;99.90;;;;;;5072213;28;20040;-70
2021/12/26 23:26:16;;;;;;;20.50;8.13;;;2.60;99.90;;;;;;5073763;28;20115;-70
2021/12/26 23:28:41;;;;;;;21.00;7.90;;;2.60;99.90;;;;;;5074094;28;20055;-69
2021/12/26 23:31:07;;;;;;;27.83;9.57;;;2.60;99.90;;;;;;5072228;28;20492;-70
2021/12/26 23:33:33;;;;;;;24.55;8.25;;;2.60;99.90;;;;;;5073369;28;20047;-69
2021/12/26 23:35:58;;;;;;;18.08;7.88;;;2.60;99.90;;;;;;5072009;28;20123;-70
2021/12/26 23:38:24;;;;;;;25.15;9.13;;;2.70;99.90;;;;;;5071474;28;20484;-70
2021/12/26 23:40:56;;;;;;;25.88;8.18;;;2.60;99.90;;;;;;5066940;28;20040;-70
2021/12/26 23:43:30;;;;;;;28.50;8.80;;;2.70;99.90;;;;;;5067956;28;20056;-69
2021/12/26 23:45:57;;;;;;;20.42;8.25;;;2.70;99.90;;;;;;5071952;28;20048;-69
2021/12/26 23:48:23;;;;;;;22.23;8.45;;;2.60;99.90;;;;;;5071287;28;20116;-70
2021/12/26 23:50:48;;;;;;;30.30;9.02;;;2.70;99.90;;;;;;5071334;28;20036;-69
2021/12/26 23:53:14;;;;;;;25.50;8.55;;;2.70;99.90;;;;;;5072311;28;20037;-70
2021/12/26 23:55:40;;;;;;;22.27;8.95;;;2.70;99.90;;;;;;5072855;28;20400;-69
2021/12/26 23:58:06;;;;;;;23.10;10.25;;;2.80;99.90;;;;;;5070914;28;20028;-70
